Forside
METAR-TAF:

METAR-TAF

Lufthavne :

Guernsey,

Breddekreds: 49-26N, længdekreds: 002-36W, højde: 102 m

Aktuelle vejr

Denne rapport blev lavet for 1 time og 17 minutter siden, kl. 01:50 UTC
Vind 3 kt fra nordnordøst
Temperatur 11°C
Fugtighed 87%
Tryk 1034 hPa
Sigt 10 km eller mere
ingen skyer under 1500m og ingen cumulonimbus

METAR: EGJB 250150Z 02003KT CAVOK 11/09 Q1034

Tid: 04:07 (03:07 UTC)

Vejrudsigter

Denne rapport blev lavet for 1 time og 2 minutter siden, kl. 02:05 UTC
Foreløbig gælder fra 25 på 03 UTC til 25 på 12 UTC
Vind 4 kt fra nordøst
Sigt 10 km eller mere
ingen skyer under 1500m og ingen cumulonimbus

TAF: EGJB 250205Z 2503/2512 04004KT CAVOK

Vejrobservationer og prognoser fra mere end 4000 lufthavne (METAR og TAF).

De gule og røde prikker repræsenterer de meteorologiske stationer.

Flyt musen over at se navnet på stationen.

Så klik over at se vejr observationer og prognoser.

At skifte det kort: Klik på de grønne knapper med et sort kors for at zoome ind; på den grønne knap med en bindestreg for at zoome ud; eller på de grønne pile for tilstødende kort.


METAR-TAF: